KMIV

Millville Municipal Airport

Millville, New Jersey, USA
KMIV 252325Z 2600/2624 VRB03KT P6SM VCSH SCT003 OVC018 FM260300 30006KT P6SM VCSH SCT003 OVC020 FM260400 30006KT P6SM SCT004 OVC029 FM260500 30007KT P6SM SCT006 BKN035 FM261500 29011G17KT P6SM SKC
Issued Valid From Valid To
Apr-25 @ 23:25 UTC
(4 hours ago)
Apr-26 @ 00:00 UTC
(4 hours ago)
Apr-27 @ 00:00 UTC
(in 20 hours)
Expired Click to View Apr-26 @ 00:00 to Apr-26 @ 03:00
KMIV 252325Z 2600/2624 VRB03KT P6SM VCSH SCT003 OVC018
Wind Visibility Clouds
Variable at 3 knots Greater than 6 miles
  • Scattered at 300' AGL
  • Overcast at 1,800' AGL
From Apr-26 @ 03:00 to Apr-26 @ 04:00
FM260300 30006KT P6SM VCSH SCT003 OVC020
Wind Visibility Clouds
300° at 6 knots Greater than 6 miles
  • Scattered at 300' AGL
  • Overcast at 2,000' AGL
From Apr-26 @ 04:00 to Apr-26 @ 05:00
FM260400 30006KT P6SM SCT004 OVC029
Wind Visibility Clouds
300° at 6 knots Greater than 6 miles
  • Scattered at 400' AGL
  • Overcast at 2,900' AGL
From Apr-26 @ 05:00 to Apr-26 @ 15:00
FM260500 30007KT P6SM SCT006 BKN035
Wind Visibility Clouds
300° at 7 knots Greater than 6 miles
  • Scattered at 600' AGL
  • Broken at 3,500' AGL
From Apr-26 @ 15:00 to Apr-27 @ 00:00
FM261500 29011G17KT P6SM SKC
Wind Visibility Clouds
290° at 11 knots
 Gusting to 17 knots
Greater than 6 miles
  • Clear skies
KMIV 252325Z 2600/2624 VRB03KT P6SM VCSH SCT003 OVC018 FM260300 30006KT P6SM VCSH SCT003 OVC020 FM260400 30006KT P6SM SCT004 OVC029 FM260500 30007KT P6SM SCT006 BKN035 FM261500 29011G17KT P6SM SKC
Issued Apr-25 @ 23:25 UTC
(4 hours ago)
Valid From Apr-26 @ 00:00 UTC
(4 hours ago)
Valid To Apr-27 @ 00:00 UTC
(in 20 hours)
Apr-26 @ 00:00 - Apr-26 @ 03:00
Wind Visibility
Variable at 3 knots Greater than 6 miles
Clouds
  • Scattered at 300' AGL
  • Overcast at 1,800' AGL
From Apr-26 @ 03:00 - Apr-26 @ 04:00
Wind Visibility
300° at 6 knots Greater than 6 miles
Clouds
  • Scattered at 300' AGL
  • Overcast at 2,000' AGL
From Apr-26 @ 04:00 - Apr-26 @ 05:00
Wind Visibility
300° at 6 knots Greater than 6 miles
Clouds
  • Scattered at 400' AGL
  • Overcast at 2,900' AGL
From Apr-26 @ 05:00 - Apr-26 @ 15:00
Wind Visibility
300° at 7 knots Greater than 6 miles
Clouds
  • Scattered at 600' AGL
  • Broken at 3,500' AGL
From Apr-26 @ 15:00 - Apr-27 @ 00:00
Wind Visibility
290° at 11 knots
 Gusting to 17 knots
Greater than 6 miles
Clouds
  • Clear skies